Time;durP1;ratioP1;P1;durP2;ratioP2;P2;SDS_P1;SDS_P2;PMS_P1;PMS_P2;Temp;Humidity;BMP_temperature;BMP_pressure;BME280_temperature;BME280_humidity;BME280_pressure;Samples;Min_cycle;Max_cycle;Signal;HPM_P1;HPM_P2
2022/11/12 00:01:22;;;;;;;11.98;7.78;;;10.50;68.10;;;;;;6338452;22;20028;-75
2022/11/12 00:03:47;;;;;;;13.88;8.60;;;10.50;68.10;;;;;;6338308;22;20003;-75
2022/11/12 00:06:13;;;;;;;11.13;7.30;;;10.50;68.00;;;;;;6338204;22;19994;-73
2022/11/12 00:08:39;;;;;;;12.75;7.57;;;10.50;68.00;;;;;;6338326;22;19995;-76
2022/11/12 00:11:06;;;;;;;10.48;6.93;;;10.50;68.10;;;;;;6338343;22;19995;-74
2022/11/12 00:13:32;;;;;;;11.70;6.32;;;10.50;68.10;;;;;;6339910;22;19995;-75
2022/11/12 00:15:57;;;;;;;14.43;7.55;;;10.40;67.90;;;;;;6341686;22;20075;-74
2022/11/12 00:18:24;;;;;;;16.90;7.65;;;10.40;67.80;;;;;;6341519;22;19998;-77
2022/11/12 00:20:49;;;;;;;15.75;9.15;;;10.40;67.90;;;;;;6313822;22;20097;-74
2022/11/12 00:23:15;;;;;;;19.63;8.98;;;10.40;67.90;;;;;;6341647;22;20033;-77
2022/11/12 00:25:41;;;;;;;15.27;9.43;;;10.40;68.00;;;;;;6313762;22;20345;-75
2022/11/12 00:28:08;;;;;;;18.42;9.13;;;10.30;67.90;;;;;;6313945;22;20011;-76
2022/11/12 00:30:38;;;;;;;16.95;9.43;;;10.30;68.00;;;;;;6341581;22;19994;-76
2022/11/12 00:33:04;;;;;;;24.10;10.30;;;10.40;68.20;;;;;;6313714;22;20006;-75
2022/11/12 00:35:31;;;;;;;28.70;11.88;;;10.40;68.30;;;;;;6341356;22;20429;-74
2022/11/12 00:37:58;;;;;;;17.67;10.15;;;10.40;68.40;;;;;;6312198;22;20547;-75
2022/11/12 00:40:24;;;;;;;33.00;10.70;;;10.40;68.50;;;;;;6340428;22;20026;-77
2022/11/12 00:42:51;;;;;;;32.85;11.20;;;10.40;68.50;;;;;;6339837;22;19994;-75
2022/11/12 00:45:18;;;;;;;31.50;11.70;;;10.40;68.60;;;;;;6313229;22;20102;-77
2022/11/12 00:47:44;;;;;;;23.42;11.55;;;10.40;68.60;;;;;;6341481;22;20051;-77
2022/11/12 00:50:10;;;;;;;42.25;13.13;;;10.40;68.80;;;;;;6341517;22;20022;-74
2022/11/12 00:52:36;;;;;;;19.20;11.30;;;10.30;68.80;;;;;;6313865;22;20003;-73
2022/11/12 00:55:02;;;;;;;41.88;12.68;;;10.30;69.00;;;;;;6341446;22;19994;-77
2022/11/12 00:57:28;;;;;;;74.10;13.48;;;10.30;69.10;;;;;;6313634;22;20009;-76
2022/11/12 00:59:53;;;;;;;22.38;12.60;;;10.30;69.30;;;;;;6341406;22;19999;-78
2022/11/12 01:02:21;;;;;;;21.98;12.15;;;10.30;69.30;;;;;;6341385;22;20006;-77
2022/11/12 01:04:47;;;;;;;24.60;12.18;;;10.30;69.30;;;;;;6341285;22;20002;-75
2022/11/12 01:07:14;;;;;;;32.88;12.65;;;10.30;69.30;;;;;;6341126;22;20025;-74
2022/11/12 01:09:40;;;;;;;29.45;13.18;;;10.30;69.40;;;;;;6341445;22;19999;-74
2022/11/12 01:12:06;;;;;;;68.88;12.63;;;10.30;69.40;;;;;;6341401;22;20019;-76
2022/11/12 01:14:32;;;;;;;36.65;12.38;;;10.30;69.40;;;;;;6341323;22;20376;-77
2022/11/12 01:16:58;;;;;;;32.75;11.90;;;10.30;69.40;;;;;;6341359;22;19998;-76
2022/11/12 01:19:24;;;;;;;30.42;11.88;;;10.20;70.10;;;;;;6313503;22;20338;-75
2022/11/12 01:21:50;;;;;;;65.03;11.57;;;10.20;69.30;;;;;;6313620;22;20345;-73
2022/11/12 01:24:15;;;;;;;25.58;13.00;;;10.20;69.40;;;;;;6340459;22;20053;-76
2022/11/12 01:26:41;;;;;;;44.55;11.85;;;10.20;69.50;;;;;;6339203;22;20007;-76
2022/11/12 01:29:07;;;;;;;18.50;11.38;;;10.20;69.60;;;;;;6339601;22;20005;-76
2022/11/12 01:31:36;;;;;;;21.80;12.30;;;10.20;69.60;;;;;;6339193;22;20021;-76
2022/11/12 01:34:07;;;;;;;46.15;12.20;;;10.20;69.70;;;;;;6339599;22;20029;-75
2022/11/12 01:36:38;;;;;;;44.28;12.55;;;10.20;69.60;;;;;;6312050;22;19998;-75
2022/11/12 01:39:05;;;;;;;48.05;11.70;;;10.20;69.40;;;;;;6339473;22;19999;-74
2022/11/12 01:41:34;;;;;;;30.08;11.27;;;10.20;69.20;;;;;;6339378;22;19991;-76
2022/11/12 01:44:05;;;;;;;54.53;13.50;;;10.10;69.10;;;;;;6339295;22;20079;-76
2022/11/12 01:46:33;;;;;;;42.60;14.18;;;10.10;69.10;;;;;;6311718;22;20017;-76
2022/11/12 01:49:03;;;;;;;32.10;12.77;;;10.10;69.10;;;;;;6339309;22;20003;-76
2022/11/12 01:51:40;;;;;;;50.20;13.32;;;10.00;69.20;;;;;;6339358;22;20430;-76
2022/11/12 01:54:09;;;;;;;60.05;15.60;;;10.00;69.30;;;;;;6339524;22;20001;-76
2022/11/12 01:56:36;;;;;;;27.40;13.10;;;10.00;69.30;;;;;;6339884;22;20002;-77
2022/11/12 01:59:10;;;;;;;45.10;14.57;;;10.00;70.20;;;;;;6339331;22;20002;-74
2022/11/12 02:01:37;;;;;;;50.47;14.45;;;9.90;69.30;;;;;;6339121;22;20002;-75
2022/11/12 02:04:03;;;;;;;24.30;12.50;;;10.00;69.40;;;;;;6311510;22;20014;-74
2022/11/12 02:06:30;;;;;;;34.85;13.40;;;9.90;69.20;;;;;;6338925;22;20078;-73
2022/11/12 02:08:57;;;;;;;24.50;12.80;;;9.90;69.10;;;;;;6339096;22;20043;-74
2022/11/12 02:11:22;;;;;;;25.25;11.55;;;9.90;69.00;;;;;;6339119;22;20030;-74
2022/11/12 02:13:57;;;;;;;33.75;10.98;;;9.80;68.90;;;;;;6338947;22;19995;-75
2022/11/12 02:16:31;;;;;;;23.83;11.30;;;9.80;68.90;;;;;;6311443;22;20010;-77
2022/11/12 02:18:57;;;;;;;55.90;9.45;;;9.80;68.80;;;;;;6338653;22;20003;-77
2022/11/12 02:21:24;;;;;;;19.38;8.50;;;9.80;68.80;;;;;;6311381;22;20319;-74
2022/11/12 02:24:22;;;;;;;25.95;8.50;;;9.70;68.70;;;;;;6338799;22;20391;-77
2022/11/12 02:26:52;;;;;;;19.17;9.43;;;9.70;68.80;;;;;;6182744;23;20582;-75
2022/11/12 02:29:18;;;;;;;14.85;8.65;;;9.70;68.80;;;;;;6158064;23;20009;-76
2022/11/12 02:31:44;;;;;;;22.30;7.45;;;9.70;68.90;;;;;;6182761;23;20056;-76
2022/11/12 02:34:10;;;;;;;19.23;9.90;;;9.70;69.00;;;;;;6183169;23;20080;-77
2022/11/12 02:36:35;;;;;;;16.58;8.98;;;9.70;69.00;;;;;;6182909;23;20036;-77
2022/11/12 02:39:02;;;;;;;42.75;11.30;;;9.70;69.10;;;;;;6183186;23;20008;-76
2022/11/12 02:41:28;;;;;;;19.98;7.88;;;9.70;69.10;;;;;;6158206;23;20009;-74
2022/11/12 02:43:54;;;;;;;17.73;8.98;;;9.80;69.00;;;;;;6182893;23;20441;-77
2022/11/12 02:46:20;;;;;;;25.08;10.25;;;9.80;69.00;;;;;;6182798;23;20015;-75
2022/11/12 02:48:45;;;;;;;30.80;10.00;;;9.70;68.90;;;;;;6182849;23;20012;-76
2022/11/12 02:51:11;;;;;;;30.92;8.65;;;9.70;68.80;;;;;;6157977;23;20084;-76
2022/11/12 02:53:37;;;;;;;15.48;8.70;;;9.70;68.70;;;;;;6157902;23;20455;-77
2022/11/12 02:56:06;;;;;;;19.45;8.68;;;9.80;68.80;;;;;;6182785;23;20013;-77
2022/11/12 02:58:32;;;;;;;28.02;10.20;;;9.80;68.60;;;;;;6182770;23;20008;-74
2022/11/12 03:00:58;;;;;;;22.60;11.15;;;9.80;68.50;;;;;;6182588;23;20076;-77
2022/11/12 03:03:24;;;;;;;22.13;11.65;;;9.80;68.50;;;;;;6327960;22;20003;-75
2022/11/12 03:06:00;;;;;;;24.85;11.43;;;9.80;68.60;;;;;;6338490;22;20003;-77
2022/11/12 03:08:26;;;;;;;21.88;11.18;;;9.80;68.80;;;;;;6338567;22;19991;-76
2022/11/12 03:10:53;;;;;;;16.25;9.77;;;9.80;68.80;;;;;;6338599;22;20452;-74
2022/11/12 03:13:20;;;;;;;35.47;11.18;;;9.80;68.90;;;;;;6338504;22;20048;-74
2022/11/12 03:15:46;;;;;;;24.60;10.52;;;9.80;69.00;;;;;;6338498;22;20483;-76
2022/11/12 03:18:12;;;;;;;31.13;10.85;;;9.80;68.90;;;;;;6338440;22;20002;-75
2022/11/12 03:20:38;;;;;;;20.85;9.52;;;9.80;68.90;;;;;;6338311;22;20046;-74
2022/11/12 03:23:09;;;;;;;26.52;9.10;;;9.80;68.90;;;;;;6310688;22;20010;-76
2022/11/12 03:25:35;;;;;;;14.52;7.20;;;9.70;68.70;;;;;;6338378;22;20013;-75
2022/11/12 03:28:07;;;;;;;9.15;6.38;;;9.70;68.60;;;;;;6338410;22;20025;-75
2022/11/12 03:30:35;;;;;;;19.98;7.35;;;9.70;68.60;;;;;;6338298;22;20337;-77
2022/11/12 03:33:01;;;;;;;18.25;7.32;;;9.70;68.50;;;;;;6338196;22;19998;-76
2022/11/12 03:35:27;;;;;;;8.70;6.05;;;9.70;68.50;;;;;;6338243;22;19987;-76
2022/11/12 03:37:53;;;;;;;17.08;6.78;;;9.70;68.50;;;;;;6338336;22;20003;-76
2022/11/12 03:40:19;;;;;;;7.63;5.53;;;9.70;68.50;;;;;;6338226;22;19991;-75
2022/11/12 03:42:50;;;;;;;8.38;5.65;;;9.60;68.50;;;;;;6338248;22;20013;-76
2022/11/12 03:45:17;;;;;;;18.77;6.32;;;9.60;68.60;;;;;;6338165;22;19995;-75
2022/11/12 03:47:47;;;;;;;13.40;6.47;;;9.70;68.60;;;;;;6337875;22;20418;-77
2022/11/12 03:50:14;;;;;;;8.70;5.32;;;9.60;68.40;;;;;;6338252;22;20333;-74
2022/11/12 03:52:48;;;;;;;13.40;5.85;;;9.70;68.40;;;;;;6338218;22;19999;-74
2022/11/12 03:55:15;;;;;;;11.20;4.72;;;9.60;68.10;;;;;;6338335;22;20056;-75
2022/11/12 03:57:42;;;;;;;28.65;5.20;;;9.60;67.80;;;;;;6338362;22;20025;-76
2022/11/12 04:00:10;;;;;;;13.85;4.97;;;9.60;67.60;;;;;;6338073;22;20073;-76
2022/11/12 04:02:37;;;;;;;12.55;4.35;;;9.50;67.40;;;;;;6338276;22;20052;-74
2022/11/12 04:10:34;;;;;;;4.55;3.50;;;9.40;68.00;;;;;;6338431;22;20354;-74
2022/11/12 04:21:49;;;;;;;5.50;3.53;;;9.40;67.50;;;;;;6338278;22;20029;-77
2022/11/12 04:23:59;;;;;;;17.58;5.38;;;9.40;67.50;;;;;;6338060;22;20017;-77
2022/11/12 04:26:24;;;;;;;6.82;4.60;;;9.30;67.50;;;;;;6338362;22;20379;-76
2022/11/12 04:31:34;;;;;;;6.13;4.78;;;9.40;67.60;;;;;;6337978;22;20014;-76
2022/11/12 04:34:27;;;;;;;12.85;5.15;;;9.30;67.60;;;;;;6337930;22;19991;-74
2022/11/12 04:36:46;;;;;;;50.33;6.25;;;9.40;67.70;;;;;;6337711;22;20010;-77
2022/11/12 04:39:11;;;;;;;17.50;5.45;;;9.30;67.60;;;;;;6338012;22;20179;-75
2022/11/12 04:47:06;;;;;;;30.67;6.13;;;9.30;67.50;;;;;;6338078;22;20249;-74
2022/11/12 04:49:32;;;;;;;31.55;5.03;;;9.30;67.20;;;;;;6337932;22;19998;-77
2022/11/12 04:52:03;;;;;;;17.77;6.25;;;9.20;67.10;;;;;;6337931;22;19999;-76
2022/11/12 04:54:29;;;;;;;11.50;4.88;;;9.20;67.20;;;;;;6310345;22;20014;-75
2022/11/12 04:56:55;;;;;;;16.98;4.75;;;9.10;67.30;;;;;;6310081;22;20007;-77
2022/11/12 04:59:21;;;;;;;5.82;4.43;;;9.10;68.20;;;;;;6338538;22;20022;-74
2022/11/12 05:01:46;;;;;;;7.80;5.00;;;9.10;67.40;;;;;;6339555;22;20326;-76
2022/11/12 05:04:12;;;;;;;6.82;4.60;;;9.10;67.50;;;;;;6339837;22;20338;-75
2022/11/12 05:06:50;;;;;;;7.30;4.38;;;9.10;67.70;;;;;;6339663;22;19998;-75
2022/11/12 05:09:17;;;;;;;8.05;5.18;;;9.10;67.80;;;;;;6339806;22;19994;-75
2022/11/12 05:11:43;;;;;;;8.52;5.00;;;9.10;67.80;;;;;;6339752;22;19999;-75
2022/11/12 05:14:08;;;;;;;7.53;4.18;;;9.10;67.70;;;;;;6339612;22;20030;-74
2022/11/12 05:16:34;;;;;;;20.88;4.63;;;9.10;68.50;;;;;;6339727;22;20319;-78
2022/11/12 05:19:00;;;;;;;7.75;4.82;;;9.10;67.80;;;;;;6339452;22;20025;-76
2022/11/12 05:24:10;;;;;;;15.95;6.25;;;9.20;68.00;;;;;;6339715;22;20017;-74
2022/11/12 05:26:36;;;;;;;13.20;7.20;;;9.20;68.10;;;;;;6339488;22;20077;-74
2022/11/12 05:29:01;;;;;;;13.38;6.70;;;9.20;68.20;;;;;;6339588;22;19999;-77
2022/11/12 05:31:27;;;;;;;24.23;7.50;;;9.30;68.20;;;;;;6339464;22;19998;-75
2022/11/12 05:33:53;;;;;;;17.05;7.97;;;9.30;68.10;;;;;;6339342;22;19991;-75
2022/11/12 05:36:19;;;;;;;31.05;9.70;;;9.30;68.20;;;;;;6339479;22;20081;-75
2022/11/12 05:38:44;;;;;;;16.00;7.97;;;9.30;68.20;;;;;;6339521;22;20372;-74
2022/11/12 05:41:10;;;;;;;19.45;9.13;;;9.30;68.30;;;;;;6339880;22;20002;-77
2022/11/12 05:43:36;;;;;;;23.17;8.68;;;9.30;68.40;;;;;;6312191;22;20003;-75
2022/11/12 05:46:01;;;;;;;32.42;9.43;;;9.30;68.60;;;;;;6339443;22;20085;-74
2022/11/12 05:48:27;;;;;;;28.13;10.38;;;9.30;68.70;;;;;;6311996;22;20003;-77
2022/11/12 05:50:53;;;;;;;39.72;9.88;;;9.30;68.80;;;;;;6312327;22;20064;-75
2022/11/12 05:53:19;;;;;;;43.78;9.70;;;9.30;68.80;;;;;;6339539;22;20011;-75
2022/11/12 05:55:45;;;;;;;26.75;10.02;;;9.40;68.90;;;;;;6339302;22;20030;-76
2022/11/12 05:58:11;;;;;;;56.20;13.02;;;9.40;69.00;;;;;;6311672;22;19999;-74
2022/11/12 06:00:40;;;;;;;31.90;12.32;;;9.40;69.20;;;;;;6338914;22;20037;-75
2022/11/12 06:03:10;;;;;;;32.75;10.52;;;9.40;69.30;;;;;;6339319;22;20430;-75
2022/11/12 06:05:36;;;;;;;34.67;11.40;;;9.40;69.40;;;;;;6339098;22;19995;-76
2022/11/12 06:08:04;;;;;;;33.72;10.65;;;9.40;69.50;;;;;;6311701;22;20433;-76
2022/11/12 06:10:33;;;;;;;20.65;10.55;;;9.40;69.50;;;;;;6311270;22;19990;-76
2022/11/12 06:12:59;;;;;;;21.98;10.40;;;9.40;69.50;;;;;;6339039;22;20001;-76
2022/11/12 06:15:27;;;;;;;44.38;11.63;;;9.40;69.60;;;;;;6339169;22;20023;-75
2022/11/12 06:17:53;;;;;;;49.97;15.80;;;9.40;69.50;;;;;;6339120;22;20303;-74
2022/11/12 06:20:21;;;;;;;29.88;11.88;;;9.40;69.40;;;;;;6338741;22;20003;-75
2022/11/12 06:22:47;;;;;;;36.55;13.18;;;9.40;69.40;;;;;;6339146;22;20055;-75
2022/11/12 06:25:13;;;;;;;60.83;13.38;;;9.40;69.30;;;;;;6338960;22;20426;-75
2022/11/12 06:27:39;;;;;;;29.17;11.02;;;9.40;69.40;;;;;;6339095;22;20074;-76
2022/11/12 06:30:06;;;;;;;49.42;11.90;;;9.40;69.30;;;;;;6338954;22;20019;-74
2022/11/12 06:32:32;;;;;;;33.70;11.45;;;9.40;69.30;;;;;;6338904;22;20079;-77
2022/11/12 06:34:58;;;;;;;27.92;11.48;;;9.40;69.20;;;;;;6338958;22;20019;-76
2022/11/12 06:37:23;;;;;;;34.40;10.75;;;9.40;69.30;;;;;;6339000;22;20485;-76
2022/11/12 06:39:49;;;;;;;25.67;11.80;;;9.40;69.20;;;;;;6338981;22;20326;-75
2022/11/12 06:42:15;;;;;;;36.67;12.40;;;9.40;69.30;;;;;;6338893;22;20421;-75
2022/11/12 06:44:41;;;;;;;24.05;11.60;;;9.40;69.30;;;;;;6338916;22;19994;-75
2022/11/12 06:47:09;;;;;;;22.23;12.45;;;9.40;69.30;;;;;;6338814;22;20104;-77
2022/11/12 06:49:35;;;;;;;59.28;13.60;;;9.40;69.40;;;;;;6338955;22;19999;-77
2022/11/12 06:52:01;;;;;;;28.25;13.82;;;9.40;69.50;;;;;;6311368;22;20033;-76
2022/11/12 06:54:27;;;;;;;37.00;14.40;;;9.40;69.90;;;;;;6338910;22;19994;-75
2022/11/12 06:56:53;;;;;;;29.90;13.73;;;9.50;69.50;;;;;;6338899;22;20007;-75
2022/11/12 06:59:18;;;;;;;62.30;16.17;;;9.50;69.50;;;;;;6338792;22;19999;-76
2022/11/12 07:01:44;;;;;;;36.25;14.75;;;9.50;69.40;;;;;;6311003;22;20356;-77
2022/11/12 07:04:10;;;;;;;31.73;15.18;;;9.50;69.20;;;;;;6338800;22;19999;-76
2022/11/12 07:06:36;;;;;;;31.95;16.02;;;9.50;69.00;;;;;;6338704;22;19999;-76
2022/11/12 07:09:03;;;;;;;38.45;15.80;;;9.60;68.90;;;;;;6338644;22;19999;-74
2022/11/12 07:11:29;;;;;;;41.83;17.17;;;9.60;68.90;;;;;;6310850;22;20001;-76
2022/11/12 07:13:54;;;;;;;32.17;16.52;;;9.60;68.80;;;;;;6338385;22;19999;-75
2022/11/12 07:16:21;;;;;;;45.85;17.98;;;9.60;68.80;;;;;;6310965;22;20445;-76
2022/11/12 07:18:48;;;;;;;45.92;16.70;;;9.70;68.90;;;;;;6338329;22;20381;-75
2022/11/12 07:21:19;;;;;;;36.33;18.25;;;9.70;68.90;;;;;;6338546;22;20014;-76
2022/11/12 07:23:46;;;;;;;41.33;18.30;;;9.70;69.00;;;;;;6338242;22;20049;-75
2022/11/12 07:26:20;;;;;;;47.08;19.92;;;9.80;69.10;;;;;;6310690;22;20010;-76
2022/11/12 07:28:47;;;;;;;41.63;17.70;;;9.80;69.10;;;;;;6338680;22;20048;-76
2022/11/12 07:31:14;;;;;;;45.08;19.13;;;9.80;69.00;;;;;;6338315;22;20379;-75
2022/11/12 07:33:41;;;;;;;39.13;16.20;;;9.80;69.00;;;;;;6338472;22;20326;-75
2022/11/12 07:36:09;;;;;;;39.72;17.85;;;9.90;68.90;;;;;;6338556;22;19987;-76
2022/11/12 07:38:37;;;;;;;45.00;18.48;;;9.90;68.90;;;;;;6338529;22;20025;-76
2022/11/12 07:41:09;;;;;;;52.10;20.27;;;10.00;68.80;;;;;;6310697;22;20003;-75
2022/11/12 07:43:36;;;;;;;71.65;21.38;;;10.00;68.70;;;;;;6338424;22;20376;-75
2022/11/12 07:46:05;;;;;;;56.95;23.60;;;10.00;68.60;;;;;;6338299;22;20052;-75
2022/11/12 07:48:31;;;;;;;72.03;24.55;;;10.10;68.60;;;;;;6338166;22;20005;-77
2022/11/12 07:51:06;;;;;;;91.97;26.85;;;10.10;68.50;;;;;;6338259;22;19995;-76
2022/11/12 07:53:32;;;;;;;89.68;28.15;;;10.10;68.20;;;;;;6310641;22;19999;-76
2022/11/12 07:56:00;;;;;;;86.63;32.05;;;10.10;68.10;;;;;;6310571;22;20434;-75
2022/11/12 07:58:28;;;;;;;114.90;33.28;;;10.10;68.10;;;;;;6338226;22;19998;-74
2022/11/12 08:00:54;;;;;;;85.20;33.63;;;10.20;68.40;;;;;;6310236;22;20014;-74
2022/11/12 08:03:20;;;;;;;87.30;35.90;;;10.20;68.40;;;;;;6338187;22;20007;-76
2022/11/12 08:05:47;;;;;;;90.97;33.42;;;10.30;68.60;;;;;;6338209;22;19999;-75
2022/11/12 08:08:13;;;;;;;87.97;35.22;;;10.30;68.80;;;;;;6338218;22;20048;-75
2022/11/12 08:10:39;;;;;;;92.10;33.83;;;10.40;68.90;;;;;;6310525;22;19999;-76
2022/11/12 08:13:05;;;;;;;83.35;32.95;;;10.50;68.80;;;;;;6338027;22;19999;-77
2022/11/12 08:15:31;;;;;;;85.93;34.30;;;10.50;68.60;;;;;;6338172;22;20002;-74
2022/11/12 08:17:57;;;;;;;89.85;31.70;;;10.60;68.40;;;;;;6338074;22;20426;-77
2022/11/12 08:20:22;;;;;;;102.45;34.70;;;10.60;68.00;;;;;;6337904;22;20041;-74
2022/11/12 08:22:49;;;;;;;99.65;35.50;;;10.70;67.90;;;;;;6338101;22;20062;-77
2022/11/12 08:25:15;;;;;;;94.15;34.83;;;10.70;67.70;;;;;;6338167;22;20013;-76
2022/11/12 08:27:41;;;;;;;89.57;34.70;;;10.80;67.70;;;;;;6338054;22;19999;-74
2022/11/12 08:30:07;;;;;;;96.03;37.20;;;10.90;67.90;;;;;;6338185;22;20121;-75
2022/11/12 08:32:33;;;;;;;98.68;36.05;;;10.90;68.00;;;;;;6310223;22;20010;-78
2022/11/12 08:34:59;;;;;;;76.75;31.58;;;11.00;67.60;;;;;;6339259;22;20318;-77
2022/11/12 08:37:24;;;;;;;83.60;33.08;;;11.10;67.60;;;;;;6340161;22;20389;-75
2022/11/12 08:39:50;;;;;;;81.60;33.97;;;11.10;67.10;;;;;;6339960;22;20006;-75
2022/11/12 08:42:16;;;;;;;108.03;36.85;;;11.20;66.90;;;;;;6312494;22;19995;-77
2022/11/12 08:44:42;;;;;;;80.68;35.80;;;11.30;66.50;;;;;;6339929;22;19999;-75
2022/11/12 08:47:07;;;;;;;79.00;31.77;;;11.30;66.10;;;;;;6339750;22;20093;-77
2022/11/12 08:49:33;;;;;;;63.92;30.23;;;11.30;65.80;;;;;;6339813;22;20064;-76
2022/11/12 08:51:59;;;;;;;67.63;31.33;;;11.30;65.90;;;;;;6339813;22;20002;-75
2022/11/12 08:54:25;;;;;;;76.28;32.33;;;11.30;65.90;;;;;;6339887;22;19999;-76
2022/11/12 08:56:50;;;;;;;72.70;31.73;;;11.40;65.70;;;;;;6339929;22;20026;-74
2022/11/12 08:59:16;;;;;;;70.35;32.85;;;11.40;65.60;;;;;;6339641;22;20003;-77
2022/11/12 09:01:42;;;;;;;61.88;30.20;;;11.40;65.60;;;;;;6339344;22;20070;-77
2022/11/12 09:04:08;;;;;;;67.13;31.52;;;11.40;65.60;;;;;;6339702;22;20418;-76
2022/11/12 09:06:34;;;;;;;77.00;33.03;;;11.50;65.20;;;;;;6312183;22;20002;-75
2022/11/12 09:08:59;;;;;;;64.15;30.63;;;11.50;64.80;;;;;;6339657;22;19991;-75
2022/11/12 09:11:25;;;;;;;62.83;29.85;;;11.50;64.40;;;;;;6339755;22;20027;-75
2022/11/12 09:13:54;;;;;;;60.70;28.00;;;11.50;64.40;;;;;;6339602;22;20362;-77
2022/11/12 09:16:20;;;;;;;65.72;25.77;;;11.50;64.40;;;;;;6339554;22;19998;-76
2022/11/12 09:18:47;;;;;;;76.80;29.55;;;11.50;64.90;;;;;;6339413;22;20338;-76
2022/11/12 09:21:13;;;;;;;60.13;27.02;;;11.50;64.60;;;;;;6339622;22;20010;-75
2022/11/12 09:23:39;;;;;;;56.05;26.10;;;11.60;65.00;;;;;;6339448;22;20445;-75
2022/11/12 09:26:05;;;;;;;58.47;24.83;;;11.70;64.70;;;;;;6339480;22;20003;-76
2022/11/12 09:28:31;;;;;;;48.78;24.58;;;11.80;64.80;;;;;;6311903;22;20009;-75
2022/11/12 09:30:58;;;;;;;56.92;24.27;;;11.90;64.70;;;;;;6339499;22;19999;-77
2022/11/12 09:33:33;;;;;;;50.15;24.13;;;12.00;64.30;;;;;;6339222;22;19994;-77
2022/11/12 09:36:01;;;;;;;48.42;22.45;;;12.00;64.20;;;;;;6339598;22;20031;-75
2022/11/12 09:38:26;;;;;;;37.03;20.40;;;12.10;64.70;;;;;;6340025;22;20083;-75
2022/11/12 09:40:52;;;;;;;32.63;17.75;;;12.20;63.00;;;;;;6339635;22;20035;-77
2022/11/12 09:43:33;;;;;;;32.17;16.85;;;12.20;62.40;;;;;;6339245;22;20021;-76
2022/11/12 09:46:43;;;;;;;30.48;15.23;;;12.20;61.90;;;;;;6338884;22;20006;-75
2022/11/12 09:49:37;;;;;;;27.98;14.32;;;12.30;62.10;;;;;;6294544;22;20067;-77
2022/11/12 09:52:11;;;;;;;33.60;16.58;;;12.30;62.60;;;;;;6334883;22;20055;-78
2022/11/12 09:54:37;;;;;;;32.83;18.85;;;12.40;62.80;;;;;;6339411;22;20064;-75
2022/11/12 09:57:07;;;;;;;37.60;17.85;;;12.50;63.00;;;;;;6339129;22;19999;-76
2022/11/12 09:59:36;;;;;;;31.75;17.60;;;12.60;62.60;;;;;;6311762;22;20007;-75
2022/11/12 10:02:32;;;;;;;34.50;18.08;;;12.60;62.60;;;;;;6311416;22;20003;-76
2022/11/12 10:05:06;;;;;;;31.40;16.58;;;12.70;62.00;;;;;;6339164;22;20006;-75
2022/11/12 10:07:52;;;;;;;32.85;15.90;;;12.80;62.00;;;;;;6339307;22;20300;-75
2022/11/12 10:10:31;;;;;;;36.20;18.40;;;12.90;61.40;;;;;;6339301;22;20002;-77
2022/11/12 10:13:31;;;;;;;30.05;15.18;;;12.90;61.10;;;;;;6311354;22;20003;-77
2022/11/12 10:16:42;;;;;;;34.35;15.85;;;13.00;61.40;;;;;;6339171;22;20390;-75
2022/11/12 10:19:13;;;;;;;25.05;13.18;;;13.00;61.00;;;;;;6338880;22;20064;-77
2022/11/12 10:22:10;;;;;;;27.48;14.70;;;13.00;60.90;;;;;;6339201;22;20003;-76
2022/11/12 10:24:38;;;;;;;29.92;16.60;;;13.00;60.90;;;;;;6311116;22;19999;-77
2022/11/12 10:27:25;;;;;;;33.35;15.80;;;13.10;61.00;;;;;;6338760;22;20010;-76
2022/11/12 10:30:06;;;;;;;32.30;16.40;;;13.10;60.90;;;;;;6338879;22;20040;-75
2022/11/12 10:32:35;;;;;;;35.15;17.60;;;13.10;60.80;;;;;;6338748;22;20074;-76
2022/11/12 10:35:01;;;;;;;34.88;15.45;;;13.10;60.50;;;;;;6311149;22;20383;-75
2022/11/12 10:37:32;;;;;;;38.28;17.98;;;13.10;60.40;;;;;;6338872;22;19995;-76
2022/11/12 10:39:58;;;;;;;31.80;16.42;;;13.10;60.10;;;;;;6311466;22;19999;-77
2022/11/12 10:42:24;;;;;;;34.22;17.40;;;13.10;60.30;;;;;;6338939;22;20002;-77
2022/11/12 10:44:50;;;;;;;39.38;19.85;;;13.10;60.40;;;;;;6311242;22;19999;-77
2022/11/12 10:47:30;;;;;;;34.50;17.77;;;13.10;60.40;;;;;;6338814;22;19999;-76
2022/11/12 10:50:41;;;;;;;32.80;17.58;;;13.10;60.20;;;;;;6338885;22;20001;-76
2022/11/12 10:53:10;;;;;;;41.00;18.85;;;13.20;60.60;;;;;;6338821;22;20002;-77
2022/11/12 10:55:53;;;;;;;37.08;19.13;;;13.20;60.50;;;;;;6338672;22;20077;-77
2022/11/12 10:58:19;;;;;;;38.03;19.52;;;13.20;60.40;;;;;;6338598;22;20329;-74
2022/11/12 11:01:11;;;;;;;39.17;18.83;;;13.30;60.20;;;;;;6338564;22;20029;-75
2022/11/12 11:03:52;;;;;;;38.92;20.20;;;13.30;60.30;;;;;;6338704;22;20025;-76
2022/11/12 11:06:25;;;;;;;35.65;20.27;;;13.40;60.30;;;;;;6338649;22;20326;-75
2022/11/12 11:08:53;;;;;;;40.17;19.55;;;13.40;60.10;;;;;;6338637;22;20311;-77
2022/11/12 11:11:21;;;;;;;35.63;19.45;;;13.40;60.20;;;;;;6338719;22;20087;-77
2022/11/12 11:13:49;;;;;;;32.60;18.63;;;13.50;60.00;;;;;;6338637;22;19999;-76
2022/11/12 11:16:21;;;;;;;35.85;19.35;;;13.50;60.10;;;;;;6310934;22;20034;-76
2022/11/12 11:18:52;;;;;;;36.40;19.95;;;13.60;59.90;;;;;;6338932;22;20065;-74
2022/11/12 11:21:30;;;;;;;32.50;17.88;;;13.60;60.00;;;;;;6338615;22;20011;-77
2022/11/12 11:24:08;;;;;;;35.70;18.42;;;13.70;59.90;;;;;;6338537;22;20003;-76
2022/11/12 11:26:42;;;;;;;33.50;18.83;;;13.80;60.10;;;;;;6338266;22;20086;-75
2022/11/12 11:29:27;;;;;;;29.05;17.35;;;13.90;59.80;;;;;;6338599;22;20010;-75
2022/11/12 11:32:22;;;;;;;39.20;21.58;;;13.90;59.80;;;;;;6337568;22;19991;-75
2022/11/12 11:35:10;;;;;;;31.75;18.38;;;14.00;59.70;;;;;;6337117;22;20009;-76
2022/11/12 11:37:53;;;;;;;33.67;19.30;;;14.00;59.30;;;;;;6338465;22;19991;-75
2022/11/12 11:40:22;;;;;;;35.03;19.90;;;14.10;59.10;;;;;;6338927;22;19999;-74
2022/11/12 11:43:02;;;;;;;36.08;20.55;;;14.10;59.30;;;;;;6338459;22;20489;-77
2022/11/12 11:45:43;;;;;;;40.85;22.27;;;14.20;59.20;;;;;;6338282;22;20418;-75
2022/11/12 11:48:25;;;;;;;41.22;24.20;;;14.40;59.30;;;;;;6338425;22;20019;-77
2022/11/12 11:50:57;;;;;;;48.28;25.95;;;14.40;58.60;;;;;;6338359;22;20026;-76
2022/11/12 11:53:59;;;;;;;42.50;24.77;;;14.60;58.60;;;;;;6338339;22;19994;-75
2022/11/12 11:56:32;;;;;;;43.45;24.08;;;14.60;58.50;;;;;;6338413;22;19998;-76
2022/11/12 11:59:37;;;;;;;41.67;24.10;;;14.70;58.50;;;;;;6338420;22;20003;-76
2022/11/12 12:02:30;;;;;;;43.92;23.40;;;14.80;58.50;;;;;;6337949;22;19999;-75
2022/11/12 12:05:05;;;;;;;42.13;24.02;;;14.80;58.40;;;;;;6310207;22;20007;-77
2022/11/12 12:07:44;;;;;;;45.65;24.33;;;14.90;58.00;;;;;;6310284;22;20414;-77
2022/11/12 12:10:27;;;;;;;47.80;25.08;;;14.90;58.00;;;;;;6337703;22;20000;-76
2022/11/12 12:12:58;;;;;;;50.25;26.60;;;14.90;58.20;;;;;;6338009;22;19999;-77
2022/11/12 12:15:38;;;;;;;54.58;26.63;;;14.90;57.50;;;;;;6338052;22;20021;-75
2022/11/12 12:18:33;;;;;;;44.28;25.02;;;14.80;57.60;;;;;;6338323;22;20332;-75
2022/11/12 12:21:11;;;;;;;44.28;24.90;;;14.80;57.80;;;;;;6338129;22;20132;-77
2022/11/12 12:23:43;;;;;;;43.65;22.15;;;14.80;57.80;;;;;;6338204;22;19998;-77
2022/11/12 12:26:32;;;;;;;45.25;21.13;;;14.80;58.00;;;;;;6338106;22;20006;-75
2022/11/12 12:29:18;;;;;;;40.00;23.38;;;14.70;58.10;;;;;;6310379;22;20039;-75
2022/11/12 12:32:06;;;;;;;39.20;21.50;;;14.80;58.20;;;;;;6338009;22;20498;-75
2022/11/12 12:34:40;;;;;;;38.03;21.83;;;14.80;58.10;;;;;;6310758;22;20008;-75
2022/11/12 12:37:24;;;;;;;38.72;20.90;;;14.80;58.10;;;;;;6338284;22;20048;-76
2022/11/12 12:40:24;;;;;;;40.08;22.05;;;14.70;58.10;;;;;;6338196;22;19999;-76
2022/11/12 12:43:17;;;;;;;41.10;21.48;;;14.70;58.20;;;;;;6338085;22;20434;-75
2022/11/12 12:45:44;;;;;;;36.10;19.30;;;14.70;58.50;;;;;;6322157;22;20366;-76
2022/11/12 12:48:28;;;;;;;36.88;20.30;;;14.60;58.60;;;;;;6338130;22;20021;-75
2022/11/12 12:50:54;;;;;;;38.63;21.70;;;14.60;58.70;;;;;;6338056;22;20448;-76
2022/11/12 12:53:26;;;;;;;41.92;21.88;;;14.70;58.80;;;;;;6338070;22;20074;-77
2022/11/12 12:55:58;;;;;;;38.60;20.20;;;14.70;58.80;;;;;;6310534;22;20325;-75
2022/11/12 12:58:45;;;;;;;37.00;21.33;;;14.60;58.80;;;;;;6337888;22;20007;-75
2022/11/12 13:01:20;;;;;;;34.88;19.98;;;14.60;58.80;;;;;;6337785;22;20299;-74
2022/11/12 13:04:07;;;;;;;38.92;22.83;;;14.60;58.70;;;;;;6337831;22;19999;-76
2022/11/12 13:06:59;;;;;;;38.38;22.02;;;14.60;58.70;;;;;;6337778;22;20006;-75
2022/11/12 13:09:26;;;;;;;41.58;21.83;;;14.50;58.60;;;;;;6304479;22;20007;-77
2022/11/12 13:14:30;;;;;;;37.40;21.52;;;14.50;58.80;;;;;;6337872;22;20041;-75
2022/11/12 13:16:58;;;;;;;37.13;22.90;;;14.40;59.00;;;;;;6337904;22;20418;-76